Terminal Aerodrome Forecast
Issued by NWS

Home | Current Version | Previous Version | Graphics & Text | Print | Product List | Glossary On
Versions: 1 2 3 4 5 6 7 8 9 10 11 12 13 14 15 16 17 18 19 20 21 22 23 24
455
FTUS43 KGRB 151730
TAFAUW
TAF
KAUW 151730Z 1518/1618 28010KT P6SM BKN027
     FM152200 VRB03KT P6SM SCT025 BKN070
     FM160400 VRB03KT P6SM OVC035
     FM160900 09006KT 4SM -SN BKN015 OVC025
      TEMPO 1610/1614 2SM -SN
     FM161600 10009KT 6SM -SN OVC020=

USA.gov is the U.S. government's official web portal to all federal, state and local government web resources and services.